Etusivu
METAR-TAF:

METAR-TAF

Lentoasemat :

Alexandria, Louisiana, Yhdysvallat

Leveyspiiri: 31-23-42N, Pituuspiiri: 092-17-25W, korkeus merenpinnasta: 34 m

Tämänhetkinen sää

Tämä raportti tehtiin 26 minuuttia sitten, kello 17.53 UTC
Tuuli 3 kn eri suunnista
Lämpötila 6°C
Kosteus 39%
Ilmanpaine 1026 hPa
Näkyvyys: 16.1 km
selkeää

METAR: KESF 131753Z AUTO VRB03KT 10SM CLR 06/M07 A3030 RMK AO2 SLP262 T00561067 10061 21061 58020 $

Aika: 12:19 (18:19 UTC)


TAF: puuttuu

Säähavainnot ja -ennusteet yli 4000 lentoasemalta (METAR- ja TAF-raportit).

Käytössä olevat sääasemat on merkitty karttaan keltaisilla ja punaisilla pisteillä.

Aseta hiiri pisteen päälle nähdäksesi sääaseman nimen.

Klikkaa sitten nähdäksesi säähavainnot ja -ennusteet.

Kartan vaihtaminen: klikkaa mustalla rastilla varustettuja vihreitä pisteitä, niin voit zoomata sisään; viivalla varustettua vihreää pistettä, niin voit zoomata ulos tai vihreitä nuolia, niin pääset viereisille kartoille.


METAR-TAF: